createdAt,value
2019-03-10T00:00:22.533Z,99.99
2019-03-10T00:01:22.529Z,99.99
2019-03-10T00:02:43.530Z,99.99
2019-03-10T00:03:22.522Z,99.99
2019-03-10T00:04:22.487Z,99.99
2019-03-10T00:05:22.495Z,99.99
2019-03-10T00:06:22.482Z,99.99
2019-03-10T00:07:23.182Z,99.99
2019-03-10T00:08:43.479Z,99.99
2019-03-10T00:09:22.463Z,99.99
2019-03-10T00:10:22.532Z,99.99
2019-03-10T00:11:22.446Z,99.99
2019-03-10T00:12:22.445Z,99.99
2019-03-10T00:13:23.307Z,99.99
2019-03-10T00:14:43.440Z,99.99
2019-03-10T00:15:22.419Z,99.99
2019-03-10T00:16:22.419Z,99.99
2019-03-10T00:17:22.410Z,99.99
2019-03-10T00:18:22.394Z,99.99
2019-03-10T00:19:22.392Z,99.99
2019-03-10T00:20:43.387Z,99.99
2019-03-10T00:21:22.402Z,99.99
2019-03-10T00:22:22.377Z,99.99
2019-03-10T00:23:22.362Z,99.99
2019-03-10T00:24:22.356Z,99.99
2019-03-10T00:25:22.355Z,99.99
2019-03-10T00:26:43.353Z,99.99
2019-03-10T00:27:22.343Z,99.99
2019-03-10T00:28:22.331Z,99.99
2019-03-10T00:29:22.325Z,99.99
2019-03-10T00:30:22.319Z,99.99
2019-03-10T00:31:22.309Z,99.99
2019-03-10T00:32:43.314Z,99.99
2019-03-10T00:33:22.291Z,99.99
2019-03-10T00:34:22.279Z,99.99
2019-03-10T00:35:22.284Z,99.99
2019-03-10T00:36:22.267Z,99.99
2019-03-10T00:37:22.273Z,99.99
2019-03-10T00:38:43.265Z,99.99
2019-03-10T00:39:22.251Z,99.99
2019-03-10T00:40:22.253Z,99.99
2019-03-10T00:41:22.241Z,99.99
2019-03-10T00:42:22.236Z,99.99
2019-03-10T00:43:22.226Z,99.99
2019-03-10T00:44:43.220Z,99.99
2019-03-10T00:45:22.217Z,99.99
2019-03-10T00:46:22.313Z,99.84
2019-03-10T00:47:22.190Z,99.99
2019-03-10T00:48:22.191Z,99.74
2019-03-10T00:49:22.185Z,99.74
2019-03-10T00:50:43.174Z,99.64
2019-03-10T00:51:22.169Z,99.84
2019-03-10T00:52:22.162Z,99.36
2019-03-10T00:53:22.151Z,99.36
2019-03-10T00:54:22.141Z,99.07
2019-03-10T00:55:22.138Z,98.79
2019-03-10T00:56:43.137Z,98.31
2019-03-10T00:57:22.282Z,98.60
2019-03-10T00:58:22.114Z,98.12
2019-03-10T00:59:22.109Z,98.12
2019-03-10T01:00:22.097Z,98.03
2019-03-10T01:01:22.642Z,98.41
2019-03-10T01:02:43.094Z,97.55
2019-03-10T01:03:22.383Z,97.45
2019-03-10T01:04:22.086Z,97.08
2019-03-10T01:05:22.062Z,97.55
2019-03-10T01:06:22.057Z,97.60
2019-03-10T01:07:22.057Z,97.03
2019-03-10T01:08:43.057Z,96.79
2019-03-10T01:09:22.054Z,97.17
2019-03-10T01:10:22.032Z,97.17
2019-03-10T01:11:22.031Z,97.93
2019-03-10T01:12:22.017Z,98.50
2019-03-10T01:13:22.011Z,98.03
2019-03-10T01:14:43.016Z,97.64
2019-03-10T01:15:21.997Z,97.83
2019-03-10T01:16:21.999Z,98.31
2019-03-10T01:17:21.983Z,98.03
2019-03-10T01:18:21.974Z,98.03
2019-03-10T01:19:21.977Z,98.41
2019-03-10T01:20:42.979Z,98.41
2019-03-10T01:21:21.950Z,98.60
2019-03-10T01:22:21.944Z,97.36
2019-03-10T01:23:21.937Z,97.93
2019-03-10T01:24:21.940Z,98.31
2019-03-10T01:25:21.920Z,98.17
2019-03-10T01:26:42.927Z,98.46
2019-03-10T01:27:21.912Z,98.08
2019-03-10T01:28:21.913Z,98.46
2019-03-10T01:29:21.897Z,98.31
2019-03-10T01:30:21.893Z,98.60
2019-03-10T01:31:21.884Z,98.55
2019-03-10T01:32:42.886Z,99.69
2019-03-10T01:33:21.863Z,99.50
2019-03-10T01:34:21.862Z,99.41
2019-03-10T01:35:21.863Z,99.69
2019-03-10T01:36:21.850Z,99.60
2019-03-10T01:37:21.846Z,99.22
2019-03-10T01:38:42.852Z,98.93
2019-03-10T01:39:21.826Z,98.83
2019-03-10T01:40:21.829Z,98.55
2019-03-10T01:41:21.818Z,98.31
2019-03-10T01:42:21.805Z,98.36
2019-03-10T01:43:21.797Z,98.27
2019-03-10T01:44:42.799Z,98.41
2019-03-10T01:45:21.783Z,98.60
2019-03-10T01:46:21.777Z,98.31
2019-03-10T01:47:21.783Z,98.60
2019-03-10T01:48:21.770Z,98.12
2019-03-10T01:49:21.749Z,98.22
2019-03-10T01:50:42.757Z,97.83
2019-03-10T01:51:21.743Z,97.83
2019-03-10T01:52:21.737Z,97.27
2019-03-10T01:53:25.420Z,97.27
2019-03-10T01:54:21.768Z,97.08
2019-03-10T01:55:21.725Z,97.17
2019-03-10T01:56:42.724Z,96.89
2019-03-10T01:57:21.703Z,96.60
2019-03-10T01:58:21.695Z,97.08
2019-03-10T01:59:21.687Z,96.69
2019-03-10T02:00:21.676Z,96.22
2019-03-10T02:01:21.673Z,96.12
2019-03-10T02:02:42.682Z,96.12
2019-03-10T02:03:21.664Z,95.84
2019-03-10T02:04:21.656Z,95.17
2019-03-10T02:05:21.651Z,96.12
2019-03-10T02:06:21.644Z,95.94
2019-03-10T02:07:21.637Z,95.84
2019-03-10T02:08:42.636Z,95.75
2019-03-10T02:09:21.627Z,96.22
2019-03-10T02:10:21.617Z,96.12
2019-03-10T02:11:21.617Z,96.03
2019-03-10T02:12:21.601Z,96.12
2019-03-10T02:13:21.595Z,97.17
2019-03-10T02:14:42.599Z,96.79
2019-03-10T02:15:21.587Z,96.69
2019-03-10T02:16:21.574Z,96.79
2019-03-10T02:17:21.568Z,96.79
2019-03-10T02:18:21.557Z,96.60
2019-03-10T02:19:21.557Z,96.65
2019-03-10T02:20:42.552Z,96.69
2019-03-10T02:21:21.541Z,96.98
2019-03-10T02:22:21.530Z,97.13
2019-03-10T02:23:21.518Z,97.36
2019-03-10T02:24:24.113Z,97.13
2019-03-10T02:25:21.509Z,96.79
2019-03-10T02:26:42.500Z,96.79
2019-03-10T02:27:21.508Z,96.74
2019-03-10T02:28:21.496Z,97.13
2019-03-10T02:29:21.487Z,97.22
2019-03-10T02:30:21.469Z,97.13
2019-03-10T02:31:21.478Z,97.22
2019-03-10T02:32:42.513Z,97.31
2019-03-10T02:33:21.455Z,97.08
2019-03-10T02:34:21.456Z,97.17
2019-03-10T02:35:21.452Z,97.17
2019-03-10T02:36:21.447Z,96.65
2019-03-10T02:37:21.436Z,96.69
2019-03-10T02:38:42.435Z,96.84
2019-03-10T02:39:21.432Z,97.08
2019-03-10T02:40:21.411Z,96.03
2019-03-10T02:41:21.402Z,95.94
2019-03-10T02:42:21.399Z,96.31
2019-03-10T02:43:22.092Z,96.22
2019-03-10T02:44:42.391Z,95.84
2019-03-10T02:45:21.381Z,95.94
2019-03-10T02:46:21.358Z,96.17
2019-03-10T02:47:21.365Z,95.70
2019-03-10T02:48:21.360Z,95.32
2019-03-10T02:49:21.353Z,94.93
2019-03-10T02:50:42.356Z,93.84
2019-03-10T02:51:21.335Z,93.04
2019-03-10T02:52:21.336Z,92.75
2019-03-10T02:53:21.318Z,91.13
2019-03-10T02:54:21.321Z,89.51
2019-03-10T02:55:21.313Z,88.61
2019-03-10T02:56:42.319Z,86.57
2019-03-10T02:57:21.302Z,84.72
2019-03-10T02:58:21.290Z,83.67
2019-03-10T02:59:21.284Z,81.81
2019-03-10T03:00:21.276Z,79.96
2019-03-10T03:01:21.271Z,78.10
2019-03-10T03:02:42.279Z,76.82
2019-03-10T03:03:21.251Z,75.68
2019-03-10T03:04:21.256Z,73.69
2019-03-10T03:05:21.249Z,72.07
2019-03-10T03:06:21.245Z,70.45
2019-03-10T03:07:21.229Z,68.93
2019-03-10T03:08:42.229Z,67.50
2019-03-10T03:09:21.212Z,66.17
2019-03-10T03:10:21.214Z,65.13
2019-03-10T03:11:21.203Z,63.04
2019-03-10T03:12:21.187Z,61.32
2019-03-10T03:13:21.192Z,60.28
2019-03-10T03:14:42.200Z,59.33
2019-03-10T03:15:21.185Z,57.90
2019-03-10T03:16:21.180Z,57.24
2019-03-10T03:17:21.161Z,56.48
2019-03-10T03:18:21.150Z,55.71
2019-03-10T03:19:21.141Z,55.52
2019-03-10T03:20:42.152Z,54.38
2019-03-10T03:21:21.124Z,53.53
2019-03-10T03:22:21.117Z,53.43
2019-03-10T03:23:21.127Z,52.39
2019-03-10T03:24:21.114Z,52.39
2019-03-10T03:25:21.111Z,51.62
2019-03-10T03:26:42.096Z,51.15
2019-03-10T03:27:21.090Z,50.77
2019-03-10T03:28:21.079Z,49.63
2019-03-10T03:29:21.070Z,48.68
2019-03-10T03:30:21.113Z,48.58
2019-03-10T03:31:21.068Z,47.63
2019-03-10T03:32:42.048Z,47.54
2019-03-10T03:33:22.112Z,47.73
2019-03-10T03:34:21.048Z,47.63
2019-03-10T03:35:21.011Z,47.16
2019-03-10T03:36:21.026Z,46.97
2019-03-10T03:37:21.022Z,46.68
2019-03-10T03:38:42.003Z,46.20
2019-03-10T03:39:20.991Z,45.83
2019-03-10T03:40:21.003Z,45.45
2019-03-10T03:41:20.996Z,45.45
2019-03-10T03:42:20.979Z,44.40
2019-03-10T03:43:20.985Z,44.12
2019-03-10T03:44:41.977Z,43.64
2019-03-10T03:45:20.958Z,43.26
2019-03-10T03:46:20.947Z,43.64
2019-03-10T03:47:20.934Z,42.97
2019-03-10T03:48:20.985Z,43.26
2019-03-10T03:49:20.924Z,42.79
2019-03-10T03:50:41.925Z,43.43
2019-03-10T03:51:20.907Z,44.00
2019-03-10T03:52:20.922Z,43.24
2019-03-10T03:53:20.948Z,43.24
2019-03-10T03:54:20.886Z,42.38
2019-03-10T03:55:20.879Z,41.62
2019-03-10T03:56:41.878Z,41.24
2019-03-10T03:57:20.867Z,40.48
2019-03-10T03:58:20.860Z,39.91
2019-03-10T03:59:20.860Z,39.65
2019-03-10T04:00:20.846Z,38.39
2019-03-10T04:01:20.856Z,37.92
2019-03-10T04:02:41.824Z,36.79
2019-03-10T04:03:20.820Z,35.94
2019-03-10T04:04:20.814Z,34.88
2019-03-10T04:05:20.826Z,34.02
2019-03-10T04:06:20.869Z,33.07
2019-03-10T04:07:20.819Z,31.84
2019-03-10T04:08:41.786Z,31.45
2019-03-10T04:09:20.775Z,30.60
2019-03-10T04:10:20.776Z,29.27
2019-03-10T04:11:20.763Z,28.51
2019-03-10T04:12:20.756Z,28.03
2019-03-10T04:13:20.747Z,27.18
2019-03-10T04:14:41.747Z,26.42
2019-03-10T04:15:20.748Z,25.09
2019-03-10T04:16:20.728Z,24.90
2019-03-10T04:17:20.713Z,24.04
2019-03-10T04:18:20.713Z,23.20
2019-03-10T04:19:20.703Z,22.42
2019-03-10T04:20:41.698Z,21.95
2019-03-10T04:21:20.695Z,21.19
2019-03-10T04:22:20.673Z,21.19
2019-03-10T04:23:22.721Z,20.34
2019-03-10T04:24:20.664Z,19.95
2019-03-10T04:25:20.654Z,19.57
2019-03-10T04:26:41.657Z,19.01
2019-03-10T04:27:20.643Z,18.62
2019-03-10T04:28:20.635Z,18.24
2019-03-10T04:29:21.693Z,18.34
2019-03-10T04:30:20.613Z,17.86
2019-03-10T04:31:20.609Z,18.24
2019-03-10T04:32:41.620Z,17.58
2019-03-10T04:33:20.608Z,17.39
2019-03-10T04:34:20.593Z,17.01
2019-03-10T04:35:20.589Z,17.29
2019-03-10T04:36:20.576Z,16.82
2019-03-10T04:37:20.572Z,16.53
2019-03-10T04:38:41.574Z,16.35
2019-03-10T04:39:20.548Z,16.06
2019-03-10T04:40:20.553Z,15.87
2019-03-10T04:41:20.540Z,15.77
2019-03-10T04:42:20.529Z,15.20
2019-03-10T04:43:20.529Z,15.20
2019-03-10T04:44:41.522Z,14.44
2019-03-10T04:45:20.497Z,14.54
2019-03-10T04:46:20.499Z,14.15
2019-03-10T04:47:20.490Z,13.78
2019-03-10T04:48:20.495Z,13.49
2019-03-10T04:49:20.473Z,13.78
2019-03-10T04:50:41.488Z,13.02
2019-03-10T04:51:20.460Z,13.11
2019-03-10T04:52:20.445Z,13.11
2019-03-10T04:53:20.448Z,12.45
2019-03-10T04:54:20.434Z,12.35
2019-03-10T04:55:20.427Z,11.78
2019-03-10T04:56:41.431Z,11.59
2019-03-10T04:57:20.419Z,11.11
2019-03-10T04:58:20.418Z,10.07
2019-03-10T04:59:20.400Z,9.12
2019-03-10T05:00:20.413Z,8.64
2019-03-10T05:01:20.383Z,8.36
2019-03-10T05:02:41.393Z,8.45
2019-03-10T05:03:20.376Z,7.98
2019-03-10T05:04:20.357Z,7.98
2019-03-10T05:05:20.358Z,7.60
2019-03-10T05:06:20.352Z,7.51
2019-03-10T05:07:20.339Z,7.79
2019-03-10T05:08:41.340Z,7.70
2019-03-10T05:09:20.326Z,7.31
2019-03-10T05:10:20.319Z,7.03
2019-03-10T05:11:20.315Z,7.12
2019-03-10T05:12:20.300Z,7.22
2019-03-10T05:13:20.302Z,7.41
2019-03-10T05:14:41.298Z,7.31
2019-03-10T05:15:20.295Z,7.31
2019-03-10T05:16:20.303Z,6.93
2019-03-10T05:17:20.268Z,7.22
2019-03-10T05:18:20.267Z,6.93
2019-03-10T05:19:20.253Z,7.60
2019-03-10T05:20:41.254Z,7.51
2019-03-10T05:21:20.234Z,7.70
2019-03-10T05:22:20.233Z,8.07
2019-03-10T05:23:20.231Z,7.89
2019-03-10T05:24:20.211Z,8.07
2019-03-10T05:25:20.208Z,8.07
2019-03-10T05:26:41.203Z,8.55
2019-03-10T05:27:20.203Z,8.74
2019-03-10T05:28:20.179Z,9.69
2019-03-10T05:29:20.183Z,11.21
2019-03-10T05:30:20.185Z,12.07
2019-03-10T05:31:20.762Z,12.63
2019-03-10T05:32:41.166Z,13.02
2019-03-10T05:33:20.155Z,13.68
2019-03-10T05:34:20.141Z,14.25
2019-03-10T05:35:20.129Z,14.83
2019-03-10T05:36:20.131Z,14.92
2019-03-10T05:37:20.117Z,15.59
2019-03-10T05:38:41.116Z,16.25
2019-03-10T05:39:20.096Z,16.64
2019-03-10T05:40:20.093Z,17.11
2019-03-10T05:41:20.093Z,17.21
2019-03-10T05:42:20.093Z,17.87
2019-03-10T05:43:20.084Z,18.44
2019-03-10T05:44:41.075Z,18.35
2019-03-10T05:45:20.072Z,18.35
2019-03-10T05:46:20.056Z,18.26
2019-03-10T05:47:20.047Z,17.97
2019-03-10T05:48:20.042Z,17.49
2019-03-10T05:49:20.033Z,17.49
2019-03-10T05:50:41.035Z,16.92
2019-03-10T05:51:20.014Z,16.25
2019-03-10T05:52:20.011Z,15.97
2019-03-10T05:53:20.002Z,15.21
2019-03-10T05:54:19.993Z,15.02
2019-03-10T05:55:19.993Z,14.64
2019-03-10T05:56:40.991Z,13.78
2019-03-10T05:57:19.977Z,13.97
2019-03-10T05:58:19.965Z,13.69
2019-03-10T05:59:19.969Z,13.12
2019-03-10T06:00:19.957Z,12.64
2019-03-10T06:01:19.948Z,12.45
2019-03-10T06:02:40.946Z,11.98
2019-03-10T06:03:19.930Z,11.60
2019-03-10T06:04:19.919Z,11.31
2019-03-10T06:05:19.922Z,11.12
2019-03-10T06:06:19.918Z,10.93
2019-03-10T06:07:19.912Z,10.36
2019-03-10T06:08:40.908Z,10.36
2019-03-10T06:09:19.886Z,9.79
2019-03-10T06:10:19.883Z,9.98
2019-03-10T06:11:19.871Z,9.41
2019-03-10T06:12:19.865Z,9.31
2019-03-10T06:13:19.849Z,9.32
2019-03-10T06:14:40.853Z,9.22
2019-03-10T06:15:19.840Z,8.46
2019-03-10T06:16:19.835Z,8.56
2019-03-10T06:17:21.537Z,8.08
2019-03-10T06:18:19.821Z,7.98
2019-03-10T06:19:19.813Z,8.08
2019-03-10T06:20:40.812Z,7.70
2019-03-10T06:21:19.803Z,7.70
2019-03-10T06:22:19.799Z,7.60
2019-03-10T06:23:19.793Z,7.60
2019-03-10T06:24:19.778Z,7.70
2019-03-10T06:25:19.783Z,7.13
2019-03-10T06:26:40.770Z,7.13
2019-03-10T06:27:19.762Z,7.32
2019-03-10T06:28:19.751Z,7.03
2019-03-10T06:29:19.744Z,6.85
2019-03-10T06:30:19.735Z,6.85
2019-03-10T06:31:19.738Z,6.75
2019-03-10T06:32:40.733Z,6.75
2019-03-10T06:33:19.721Z,6.66
2019-03-10T06:34:19.704Z,6.66
2019-03-10T06:35:19.692Z,6.66
2019-03-10T06:36:19.702Z,6.46
2019-03-10T06:37:19.682Z,6.46
2019-03-10T06:38:40.684Z,6.46
2019-03-10T06:39:20.265Z,6.37
2019-03-10T06:40:19.670Z,5.90
2019-03-10T06:41:19.660Z,6.46
2019-03-10T06:42:19.649Z,6.66
2019-03-10T06:43:19.644Z,6.27
2019-03-10T06:44:40.646Z,6.09
2019-03-10T06:45:19.623Z,6.18
2019-03-10T06:46:19.620Z,5.90
2019-03-10T06:47:19.615Z,6.27
2019-03-10T06:48:19.598Z,6.09
2019-03-10T06:49:19.596Z,5.71
2019-03-10T06:50:40.601Z,5.71
2019-03-10T06:51:19.589Z,5.80
2019-03-10T06:52:19.580Z,6.18
2019-03-10T06:53:19.566Z,6.18
2019-03-10T06:54:19.571Z,5.80
2019-03-10T06:55:19.552Z,5.80
2019-03-10T06:56:40.558Z,6.18
2019-03-10T06:57:19.557Z,6.18
2019-03-10T06:58:19.540Z,5.80
2019-03-10T06:59:19.536Z,5.90
2019-03-10T07:00:19.522Z,5.90
2019-03-10T07:01:19.526Z,5.80
2019-03-10T07:02:40.525Z,5.90
2019-03-10T07:03:19.504Z,5.80
2019-03-10T07:04:19.496Z,5.80
2019-03-10T07:05:19.486Z,5.71
2019-03-10T07:06:19.491Z,5.42
2019-03-10T07:07:19.478Z,5.42
2019-03-10T07:08:40.485Z,5.42
2019-03-10T07:09:19.459Z,5.23
2019-03-10T07:10:19.460Z,5.23
2019-03-10T07:11:19.450Z,5.04
2019-03-10T07:12:19.438Z,4.94
2019-03-10T07:13:19.444Z,5.33
2019-03-10T07:14:40.436Z,5.33
2019-03-10T07:15:19.432Z,5.33
2019-03-10T07:16:19.417Z,5.04
2019-03-10T07:17:19.406Z,5.04
2019-03-10T07:18:19.397Z,5.14
2019-03-10T07:19:19.396Z,4.94
2019-03-10T07:20:40.394Z,5.14
2019-03-10T07:21:19.388Z,4.85
2019-03-10T07:22:19.379Z,5.04
2019-03-10T07:23:19.370Z,5.42
2019-03-10T07:24:19.363Z,5.42
2019-03-10T07:25:19.367Z,5.62
2019-03-10T07:26:41.298Z,5.71
2019-03-10T07:27:19.348Z,5.71
2019-03-10T07:28:19.347Z,6.18
2019-03-10T07:29:19.332Z,6.66
2019-03-10T07:30:19.325Z,6.85
2019-03-10T07:31:19.315Z,7.14
2019-03-10T07:32:40.324Z,7.42
2019-03-10T07:33:19.306Z,8.28
2019-03-10T07:34:19.292Z,8.95
2019-03-10T07:35:19.294Z,9.23
2019-03-10T07:36:19.290Z,10.38
2019-03-10T07:37:19.278Z,10.47
2019-03-10T07:38:40.279Z,11.99
2019-03-10T07:39:19.269Z,12.85
2019-03-10T07:40:19.256Z,14.76
2019-03-10T07:41:19.258Z,15.80
2019-03-10T07:42:19.249Z,17.04
2019-03-10T07:43:19.255Z,19.13
2019-03-10T07:44:41.703Z,20.96
2019-03-10T07:45:19.237Z,22.39
2019-03-10T07:46:19.231Z,23.72
2019-03-10T07:47:19.223Z,25.05
2019-03-10T07:48:19.214Z,26.01
2019-03-10T07:49:19.209Z,27.25
2019-03-10T07:50:40.215Z,28.29
2019-03-10T07:51:19.205Z,29.25
2019-03-10T07:52:20.475Z,29.44
2019-03-10T07:53:19.180Z,29.05
2019-03-10T07:54:19.178Z,30.10
2019-03-10T07:55:19.176Z,30.96
2019-03-10T07:56:40.186Z,31.53
2019-03-10T07:57:19.160Z,32.68
2019-03-10T07:58:19.159Z,34.11
2019-03-10T07:59:19.152Z,34.77
2019-03-10T08:00:19.140Z,36.77
2019-03-10T08:01:19.143Z,38.10
2019-03-10T08:02:40.138Z,40.39
2019-03-10T08:03:19.129Z,40.97
2019-03-10T08:04:19.125Z,40.87
2019-03-10T08:05:19.117Z,41.06
2019-03-10T08:06:19.105Z,41.16
2019-03-10T08:07:19.103Z,41.72
2019-03-10T08:08:40.103Z,42.58
2019-03-10T08:09:19.094Z,43.54
2019-03-10T08:10:19.071Z,45.15
2019-03-10T08:11:19.079Z,44.68
2019-03-10T08:12:19.082Z,44.39
2019-03-10T08:13:19.069Z,43.54
2019-03-10T08:14:40.061Z,42.96
2019-03-10T08:15:19.063Z,43.44
2019-03-10T08:16:19.051Z,43.54
2019-03-10T08:17:19.044Z,45.06
2019-03-10T08:18:19.041Z,44.59
2019-03-10T08:19:19.041Z,44.49
2019-03-10T08:20:40.040Z,44.20
2019-03-10T08:21:19.023Z,44.49
2019-03-10T08:22:19.018Z,45.92
2019-03-10T08:23:19.008Z,45.54
2019-03-10T08:24:19.004Z,46.97
2019-03-10T08:25:19.004Z,46.97
2019-03-10T08:26:39.995Z,47.06
2019-03-10T08:27:18.980Z,46.56
2019-03-10T08:28:20.329Z,45.73
2019-03-10T08:29:18.976Z,44.96
2019-03-10T08:30:18.967Z,43.90
2019-03-10T08:31:18.966Z,43.13
2019-03-10T08:32:39.972Z,42.85
2019-03-10T08:33:18.947Z,42.18
2019-03-10T08:34:18.953Z,41.53
2019-03-10T08:35:19.223Z,40.58
2019-03-10T08:36:18.940Z,40.87
2019-03-10T08:37:18.927Z,40.48
2019-03-10T08:38:39.936Z,39.25
2019-03-10T08:39:18.924Z,38.47
2019-03-10T08:40:18.908Z,37.34
2019-03-10T08:41:18.913Z,36.66
2019-03-10T08:42:20.604Z,36.28
2019-03-10T08:43:18.895Z,36.18
2019-03-10T08:44:39.885Z,37.90
2019-03-10T08:45:18.879Z,39.70
2019-03-10T08:46:18.881Z,37.99
2019-03-10T08:47:18.874Z,37.99
2019-03-10T08:48:18.859Z,36.76
2019-03-10T08:49:18.857Z,35.71
2019-03-10T08:50:39.866Z,34.66
2019-03-10T08:51:18.844Z,34.75
2019-03-10T08:52:18.837Z,34.38
2019-03-10T08:53:18.828Z,33.90
2019-03-10T08:54:18.830Z,32.85
2019-03-10T08:55:18.826Z,31.61
2019-03-10T08:56:39.820Z,31.13
2019-03-10T08:57:18.807Z,30.85
2019-03-10T08:58:18.830Z,29.71
2019-03-10T08:59:18.793Z,28.75
2019-03-10T09:00:19.862Z,27.23
2019-03-10T09:01:18.821Z,25.81
2019-03-10T09:02:39.859Z,24.85
2019-03-10T09:03:19.039Z,23.61
2019-03-10T09:04:18.777Z,22.38
2019-03-10T09:05:18.760Z,21.61
2019-03-10T09:06:18.757Z,20.56
2019-03-10T09:07:19.336Z,19.71
2019-03-10T09:08:39.748Z,18.57
2019-03-10T09:09:18.880Z,17.71
2019-03-10T09:10:18.767Z,17.23
2019-03-10T09:11:18.724Z,16.19
2019-03-10T09:12:18.796Z,15.61
2019-03-10T09:13:18.700Z,16.00
2019-03-10T09:14:39.707Z,16.47
2019-03-10T09:15:18.696Z,17.33
2019-03-10T09:16:18.691Z,17.61
2019-03-10T09:17:18.686Z,17.99
2019-03-10T09:18:18.675Z,18.95
2019-03-10T09:19:18.670Z,19.13
2019-03-10T09:20:39.674Z,20.18
2019-03-10T09:21:18.661Z,20.95
2019-03-10T09:22:18.661Z,21.53
2019-03-10T09:23:18.662Z,22.19
2019-03-10T09:24:18.645Z,22.48
2019-03-10T09:25:18.638Z,22.86
2019-03-10T09:26:39.646Z,22.77
2019-03-10T09:27:18.620Z,22.96
2019-03-10T09:28:18.631Z,23.72
2019-03-10T09:29:18.610Z,23.82
2019-03-10T09:30:18.611Z,24.10
2019-03-10T09:31:18.610Z,24.66
2019-03-10T09:32:39.608Z,25.15
2019-03-10T09:33:18.597Z,24.87
2019-03-10T09:34:18.650Z,26.01
2019-03-10T09:35:18.575Z,26.48
2019-03-10T09:36:18.581Z,26.58
2019-03-10T09:37:18.568Z,26.48
2019-03-10T09:38:39.571Z,26.39
2019-03-10T09:39:18.582Z,27.06
2019-03-10T09:40:18.552Z,26.67
2019-03-10T09:41:19.423Z,27.06
2019-03-10T09:42:19.889Z,27.15
2019-03-10T09:43:18.530Z,27.44
2019-03-10T09:44:39.548Z,28.39
2019-03-10T09:45:18.522Z,28.49
2019-03-10T09:46:18.527Z,29.34
2019-03-10T09:47:18.515Z,29.15
2019-03-10T09:48:18.514Z,28.67
2019-03-10T09:49:18.498Z,28.20
2019-03-10T09:50:39.505Z,28.10
2019-03-10T09:51:18.485Z,28.29
2019-03-10T09:52:18.482Z,28.29
2019-03-10T09:53:18.479Z,28.58
2019-03-10T09:54:18.468Z,28.49
2019-03-10T09:55:18.466Z,28.39
2019-03-10T09:56:39.460Z,28.01
2019-03-10T09:57:18.450Z,27.06
2019-03-10T09:58:18.441Z,26.48
2019-03-10T09:59:18.437Z,26.01
2019-03-10T10:00:18.432Z,25.62
2019-03-10T10:01:18.421Z,25.91
2019-03-10T10:02:39.432Z,26.48
2019-03-10T10:03:18.421Z,26.67
2019-03-10T10:04:18.405Z,28.29
2019-03-10T10:05:18.548Z,28.20
2019-03-10T10:06:18.402Z,28.29
2019-03-10T10:07:18.397Z,28.77
2019-03-10T10:08:39.392Z,28.49
2019-03-10T10:09:18.390Z,28.96
2019-03-10T10:10:18.375Z,29.05
2019-03-10T10:11:18.373Z,28.49
2019-03-10T10:12:18.357Z,28.58
2019-03-10T10:13:18.380Z,28.39
2019-03-10T10:14:39.362Z,29.25
2019-03-10T10:15:18.344Z,30.68
2019-03-10T10:16:18.341Z,31.53
2019-03-10T10:17:18.336Z,32.60
2019-03-10T10:18:18.830Z,33.55
2019-03-10T10:19:18.335Z,34.79
2019-03-10T10:20:39.331Z,35.74
2019-03-10T10:21:18.318Z,38.12
2019-03-10T10:22:18.314Z,40.70
2019-03-10T10:23:18.297Z,43.37
2019-03-10T10:24:18.308Z,45.94
2019-03-10T10:25:18.298Z,46.99
2019-03-10T10:26:39.296Z,47.08
2019-03-10T10:27:20.102Z,45.84
2019-03-10T10:28:18.279Z,46.23
2019-03-10T10:29:18.269Z,44.80
2019-03-10T10:30:18.262Z,43.25
2019-03-10T10:31:18.272Z,42.03
2019-03-10T10:32:39.269Z,41.35
2019-03-10T10:33:18.247Z,39.82
2019-03-10T10:34:18.240Z,38.01
2019-03-10T10:35:18.244Z,37.44
2019-03-10T10:36:18.230Z,36.87
2019-03-10T10:37:18.237Z,36.10
2019-03-10T10:38:39.234Z,35.82
2019-03-10T10:39:18.227Z,36.68
2019-03-10T10:40:18.222Z,36.68
2019-03-10T10:41:18.207Z,36.79
2019-03-10T10:42:18.196Z,36.87
2019-03-10T10:43:18.207Z,36.96
2019-03-10T10:44:39.209Z,36.79
2019-03-10T10:45:18.188Z,36.79
2019-03-10T10:46:18.184Z,36.87
2019-03-10T10:47:18.182Z,37.63
2019-03-10T10:48:18.173Z,37.55
2019-03-10T10:49:18.187Z,38.70
2019-03-10T10:50:39.167Z,41.56
2019-03-10T10:51:18.168Z,43.37
2019-03-10T10:52:18.158Z,44.04
2019-03-10T10:53:21.299Z,45.75
2019-03-10T10:54:18.816Z,45.75
2019-03-10T10:55:18.132Z,47.28
2019-03-10T10:56:39.145Z,50.04
2019-03-10T10:57:18.125Z,51.76
2019-03-10T10:58:18.307Z,52.80
2019-03-10T10:59:18.114Z,54.43
2019-03-10T11:00:18.103Z,56.43
2019-03-10T11:01:18.109Z,56.71
2019-03-10T11:02:39.100Z,56.43
2019-03-10T11:03:18.094Z,58.52
2019-03-10T11:04:18.092Z,57.48
2019-03-10T11:05:18.085Z,58.24
2019-03-10T11:06:19.815Z,57.28
2019-03-10T11:07:18.073Z,56.33
2019-03-10T11:08:39.075Z,55.66
2019-03-10T11:09:18.062Z,56.14
2019-03-10T11:10:18.050Z,56.33
2019-03-10T11:11:18.064Z,57.09
2019-03-10T11:12:18.041Z,57.38
2019-03-10T11:13:18.045Z,56.81
2019-03-10T11:14:39.056Z,55.47
2019-03-10T11:15:18.028Z,53.95
2019-03-10T11:16:18.029Z,54.68
2019-03-10T11:17:18.031Z,53.83
2019-03-10T11:18:18.014Z,51.73
2019-03-10T11:19:17.999Z,51.64
2019-03-10T11:20:39.011Z,50.87
2019-03-10T11:21:18.004Z,50.11
2019-03-10T11:22:17.997Z,49.16
2019-03-10T11:23:17.990Z,49.56
2019-03-10T11:24:17.982Z,50.80
2019-03-10T11:25:17.978Z,53.56
2019-03-10T11:26:39.919Z,53.95
2019-03-10T11:27:18.824Z,54.80
2019-03-10T11:28:17.967Z,56.62
2019-03-10T11:29:17.963Z,56.33
2019-03-10T11:30:17.959Z,54.80
2019-03-10T11:31:17.944Z,53.56
2019-03-10T11:32:38.953Z,53.85
2019-03-10T11:33:17.938Z,53.66
2019-03-10T11:34:17.925Z,52.52
2019-03-10T11:35:17.925Z,52.52
2019-03-10T11:36:17.923Z,50.42
2019-03-10T11:37:17.908Z,49.76
2019-03-10T11:38:38.921Z,49.95
2019-03-10T11:39:17.908Z,48.42
2019-03-10T11:40:17.894Z,47.75
2019-03-10T11:41:17.887Z,48.04
2019-03-10T11:42:17.890Z,47.47
2019-03-10T11:43:17.881Z,47.18
2019-03-10T11:44:38.890Z,46.04
2019-03-10T11:45:17.877Z,44.89
2019-03-10T11:46:17.871Z,44.51
2019-03-10T11:47:17.860Z,44.70
2019-03-10T11:48:17.854Z,45.75
2019-03-10T11:49:17.841Z,46.04
2019-03-10T11:50:38.845Z,47.28
2019-03-10T11:51:17.837Z,48.71
2019-03-10T11:52:17.833Z,48.90
2019-03-10T11:53:19.358Z,49.18
2019-03-10T11:54:17.819Z,47.94
2019-03-10T11:55:17.904Z,48.42
2019-03-10T11:56:41.910Z,47.66
2019-03-10T11:57:17.798Z,47.08
2019-03-10T11:58:17.795Z,48.13
2019-03-10T11:59:17.807Z,50.42
2019-03-10T12:00:17.794Z,50.42
2019-03-10T12:01:17.780Z,52.52
2019-03-10T12:02:38.784Z,54.24
2019-03-10T12:03:17.778Z,55.21
2019-03-10T12:04:17.769Z,56.74
2019-03-10T12:05:17.775Z,58.94
2019-03-10T12:06:17.761Z,62.37
2019-03-10T12:07:17.751Z,64.75
2019-03-10T12:08:38.767Z,66.75
2019-03-10T12:09:17.750Z,67.33
2019-03-10T12:10:17.752Z,68.85
2019-03-10T12:11:17.738Z,68.66
2019-03-10T12:12:17.735Z,67.42
2019-03-10T12:13:17.740Z,67.42
2019-03-10T12:14:38.743Z,66.09
2019-03-10T12:15:17.723Z,64.62
2019-03-10T12:16:17.717Z,62.62
2019-03-10T12:17:17.723Z,60.62
2019-03-10T12:18:17.712Z,59.19
2019-03-10T12:19:17.700Z,57.09
2019-03-10T12:20:38.714Z,56.36
2019-03-10T12:21:17.688Z,58.62
2019-03-10T12:22:17.695Z,58.81
2019-03-10T12:23:17.683Z,57.28
2019-03-10T12:24:17.685Z,56.81
2019-03-10T12:25:17.678Z,60.14
2019-03-10T12:26:38.683Z,62.05
2019-03-10T12:27:17.665Z,65.10
2019-03-10T12:28:17.671Z,67.39
2019-03-10T12:29:17.660Z,67.04
2019-03-10T12:30:17.647Z,67.14
2019-03-10T12:31:17.654Z,68.76
2019-03-10T12:32:38.651Z,72.19
2019-03-10T12:33:17.649Z,72.09
2019-03-10T12:34:17.632Z,72.00
2019-03-10T12:35:17.646Z,73.14
2019-03-10T12:36:17.626Z,76.01
2019-03-10T12:37:17.608Z,78.67
2019-03-10T12:38:38.630Z,80.01
2019-03-10T12:39:17.617Z,83.16
2019-03-10T12:40:17.631Z,82.97
2019-03-10T12:41:17.592Z,82.20
2019-03-10T12:42:17.613Z,82.97
2019-03-10T12:43:17.593Z,82.78
2019-03-10T12:44:38.592Z,82.40
2019-03-10T12:45:17.583Z,82.20
2019-03-10T12:46:17.579Z,81.49
2019-03-10T12:47:17.887Z,80.26
2019-03-10T12:48:17.574Z,78.06
2019-03-10T12:49:17.579Z,77.53
2019-03-10T12:50:38.572Z,78.54
2019-03-10T12:51:17.561Z,78.64
2019-03-10T12:52:17.544Z,78.01
2019-03-10T12:53:17.548Z,78.10
2019-03-10T12:54:17.544Z,79.91
2019-03-10T12:55:17.594Z,79.91
2019-03-10T12:56:40.569Z,81.20